sensor_id;sensor_type;location;lat;lon;timestamp;pressure;altitude;pressure_sealevel;temperature;humidity
5126;BME280;63008;53.112;8.896;2023-10-13T00:01:06;101005.81;;;14.57;100.00
5126;BME280;63008;53.112;8.896;2023-10-13T00:03:08;101005.34;;;14.55;100.00
5126;BME280;63008;53.112;8.896;2023-10-13T00:05:15;101000.28;;;14.57;100.00
5126;BME280;63008;53.112;8.896;2023-10-13T00:07:17;100991.75;;;14.62;100.00
5126;BME280;63008;53.112;8.896;2023-10-13T00:09:19;100988.63;;;14.63;100.00
5126;BME280;63008;53.112;8.896;2023-10-13T00:11:25;100984.34;;;14.66;100.00
5126;BME280;63008;53.112;8.896;2023-10-13T00:13:27;100988.63;;;14.63;100.00
5126;BME280;63008;53.112;8.896;2023-10-13T00:15:28;100991.03;;;14.65;100.00
5126;BME280;63008;53.112;8.896;2023-10-13T00:17:29;100983.19;;;14.67;100.00
5126;BME280;63008;53.112;8.896;2023-10-13T00:19:34;100981.31;;;14.71;100.00
5126;BME280;63008;53.112;8.896;2023-10-13T00:21:38;100971.97;;;14.75;100.00
5126;BME280;63008;53.112;8.896;2023-10-13T00:23:40;100971.97;;;14.75;100.00
5126;BME280;63008;53.112;8.896;2023-10-13T00:25:53;100962.88;;;14.75;100.00
5126;BME280;63008;53.112;8.896;2023-10-13T00:27:57;100971.69;;;14.80;100.00
5126;BME280;63008;53.112;8.896;2023-10-13T00:30:00;100960.28;;;14.82;100.00
5126;BME280;63008;53.112;8.896;2023-10-13T00:32:20;100957.53;;;14.82;100.00
5126;BME280;63008;53.112;8.896;2023-10-13T00:34:23;100955.66;;;14.86;100.00
5126;BME280;63008;53.112;8.896;2023-10-13T00:36:33;100961.72;;;14.91;100.00
5126;BME280;63008;53.112;8.896;2023-10-13T00:38:35;100954.66;;;14.94;100.00
5126;BME280;63008;53.112;8.896;2023-10-13T00:40:36;100947.53;;;14.93;100.00
5126;BME280;63008;53.112;8.896;2023-10-13T00:42:37;100951.19;;;14.97;100.00
5126;BME280;63008;53.112;8.896;2023-10-13T00:44:51;100948.44;;;14.97;100.00
5126;BME280;63008;53.112;8.896;2023-10-13T00:46:55;100947.28;;;14.98;100.00
5126;BME280;63008;53.112;8.896;2023-10-13T00:48:57;100945.38;;;15.02;100.00
5126;BME280;63008;53.112;8.896;2023-10-13T00:51:02;100942.44;;;15.10;100.00
5126;BME280;63008;53.112;8.896;2023-10-13T00:53:09;100944.81;;;15.12;100.00
5126;BME280;63008;53.112;8.896;2023-10-13T00:55:10;100944.03;;;15.11;100.00
5126;BME280;63008;53.112;8.896;2023-10-13T00:57:14;100944.81;;;15.12;100.00
5126;BME280;63008;53.112;8.896;2023-10-13T00:59:28;100942.97;;;15.16;100.00
5126;BME280;63008;53.112;8.896;2023-10-13T01:01:29;100939.03;;;15.17;100.00
5126;BME280;63008;53.112;8.896;2023-10-13T01:03:33;100931.19;;;15.19;100.00
5126;BME280;63008;53.112;8.896;2023-10-13T01:05:35;100930.03;;;15.20;100.00
5126;BME280;63008;53.112;8.896;2023-10-13T01:07:38;100925.72;;;15.22;100.00
5126;BME280;63008;53.112;8.896;2023-10-13T01:09:42;100928.47;;;15.22;100.00
5126;BME280;63008;53.112;8.896;2023-10-13T01:13:45;100919.91;;;15.27;100.00
5126;BME280;63008;53.112;8.896;2023-10-13T01:15:51;100920.81;;;15.31;100.00
5126;BME280;63008;53.112;8.896;2023-10-13T01:17:53;100918.06;;;15.31;100.00
5126;BME280;63008;53.112;8.896;2023-10-13T01:19:57;100914.94;;;15.33;100.00
5126;BME280;63008;53.112;8.896;2023-10-13T01:21:59;100902.72;;;15.34;100.00
5126;BME280;63008;53.112;8.896;2023-10-13T01:24:05;100911.88;;;15.38;100.00
5126;BME280;63008;53.112;8.896;2023-10-13T01:26:08;100900.09;;;15.41;100.00
5126;BME280;63008;53.112;8.896;2023-10-13T01:28:10;100907.66;;;15.44;100.00
5126;BME280;63008;53.112;8.896;2023-10-13T01:30:11;100905.44;;;15.49;100.00
5126;BME280;63008;53.112;8.896;2023-10-13T01:32:12;100897.94;;;15.50;100.00
5126;BME280;63008;53.112;8.896;2023-10-13T01:34:15;100901.56;;;15.54;100.00
5126;BME280;63008;53.112;8.896;2023-10-13T01:36:26;100897.72;;;15.58;100.00
5126;BME280;63008;53.112;8.896;2023-10-13T01:38:28;100894.59;;;15.60;100.00
5126;BME280;63008;53.112;8.896;2023-10-13T01:40:29;100898.16;;;15.60;100.00
5126;BME280;63008;53.112;8.896;2023-10-13T01:42:34;100884.38;;;15.64;100.00
5126;BME280;63008;53.112;8.896;2023-10-13T01:44:37;100879.75;;;15.68;100.00
5126;BME280;63008;53.112;8.896;2023-10-13T01:46:38;100876.59;;;15.69;100.00
5126;BME280;63008;53.112;8.896;2023-10-13T01:48:39;100873.81;;;15.69;100.00
5126;BME280;63008;53.112;8.896;2023-10-13T01:50:40;100879.06;;;15.74;100.00
5126;BME280;63008;53.112;8.896;2023-10-13T01:52:42;100871.56;;;15.75;100.00
5126;BME280;63008;53.112;8.896;2023-10-13T01:54:46;100874.00;;;15.76;100.00
5126;BME280;63008;53.112;8.896;2023-10-13T01:56:49;100868.88;;;15.78;100.00
5126;BME280;63008;53.112;8.896;2023-10-13T01:58:50;100874.84;;;15.80;100.00
5126;BME280;63008;53.112;8.896;2023-10-13T02:00:52;100869.75;;;15.82;100.00
5126;BME280;63008;53.112;8.896;2023-10-13T02:02:53;100871.34;;;15.83;100.00
5126;BME280;63008;53.112;8.896;2023-10-13T02:04:54;100871.44;;;15.87;100.00
5126;BME280;63008;53.112;8.896;2023-10-13T02:07:03;100871.44;;;15.87;100.00
5126;BME280;63008;53.112;8.896;2023-10-13T02:09:06;100867.91;;;15.90;100.00
5126;BME280;63008;53.112;8.896;2023-10-13T02:11:13;100867.19;;;15.93;100.00
5126;BME280;63008;53.112;8.896;2023-10-13T02:13:20;100863.69;;;15.96;100.00
5126;BME280;63008;53.112;8.896;2023-10-13T02:15:22;100868.03;;;15.97;100.00
5126;BME280;63008;53.112;8.896;2023-10-13T02:17:26;100858.28;;;16.03;100.00
5126;BME280;63008;53.112;8.896;2023-10-13T02:19:27;100862.66;;;16.04;100.00
5126;BME280;63008;53.112;8.896;2023-10-13T02:21:28;100857.13;;;16.04;100.00
5126;BME280;63008;53.112;8.896;2023-10-13T02:23:32;100864.31;;;16.08;100.00
5126;BME280;63008;53.112;8.896;2023-10-13T02:25:34;100856.81;;;16.09;100.00
5126;BME280;63008;53.112;8.896;2023-10-13T02:27:46;100864.69;;;16.07;100.00
5126;BME280;63008;53.112;8.896;2023-10-13T02:29:58;100849.66;;;16.08;100.00
5126;BME280;63008;53.112;8.896;2023-10-13T02:32:00;100846.97;;;16.11;100.00
5126;BME280;63008;53.112;8.896;2023-10-13T02:34:05;100842.66;;;16.14;100.00
5126;BME280;63008;53.112;8.896;2023-10-13T02:36:10;100837.13;;;16.14;100.00
5126;BME280;63008;53.112;8.896;2023-10-13T02:38:12;100826.19;;;16.21;100.00
5126;BME280;63008;53.112;8.896;2023-10-13T02:40:14;100821.00;;;16.19;100.00
5126;BME280;63008;53.112;8.896;2023-10-13T02:42:15;100830.09;;;16.20;100.00
5126;BME280;63008;53.112;8.896;2023-10-13T02:44:25;100822.25;;;16.22;100.00
5126;BME280;63008;53.112;8.896;2023-10-13T02:46:33;100819.50;;;16.25;100.00
5126;BME280;63008;53.112;8.896;2023-10-13T02:48:37;100820.31;;;16.26;100.00
5126;BME280;63008;53.112;8.896;2023-10-13T02:50:41;100816.38;;;16.27;100.00
5126;BME280;63008;53.112;8.896;2023-10-13T02:52:46;100810.84;;;16.27;100.00
5126;BME280;63008;53.112;8.896;2023-10-13T02:54:50;100812.44;;;16.28;100.00
5126;BME280;63008;53.112;8.896;2023-10-13T02:56:51;100812.44;;;16.28;100.00
5126;BME280;63008;53.112;8.896;2023-10-13T02:58:58;100802.97;;;16.29;100.00
5126;BME280;63008;53.112;8.896;2023-10-13T03:01:07;100800.19;;;16.29;100.00
5126;BME280;63008;53.112;8.896;2023-10-13T03:03:17;100799.44;;;16.32;100.00
5126;BME280;63008;53.112;8.896;2023-10-13T03:05:20;100798.25;;;16.33;100.00
5126;BME280;63008;53.112;8.896;2023-10-13T03:07:23;100800.25;;;16.32;100.00
5126;BME280;63008;53.112;8.896;2023-10-13T03:09:24;100796.31;;;16.33;100.00
5126;BME280;63008;53.112;8.896;2023-10-13T03:11:25;100793.19;;;16.35;100.00
5126;BME280;63008;53.112;8.896;2023-10-13T03:13:26;100783.78;;;16.39;100.00
5126;BME280;63008;53.112;8.896;2023-10-13T03:15:31;100794.44;;;16.37;100.00
5126;BME280;63008;53.112;8.896;2023-10-13T03:17:32;100790.06;;;16.36;100.00
5126;BME280;63008;53.112;8.896;2023-10-13T03:19:35;100782.16;;;16.38;100.00
5126;BME280;63008;53.112;8.896;2023-10-13T03:21:39;100782.25;;;16.42;100.00
5126;BME280;63008;53.112;8.896;2023-10-13T03:23:45;100777.47;;;16.42;100.00
5126;BME280;63008;53.112;8.896;2023-10-13T03:25:47;100776.69;;;16.42;100.00
5126;BME280;63008;53.112;8.896;2023-10-13T03:27:51;100776.69;;;16.42;100.00
5126;BME280;63008;53.112;8.896;2023-10-13T03:29:52;100779.06;;;16.43;100.00
5126;BME280;63008;53.112;8.896;2023-10-13T03:31:56;100778.78;;;16.48;100.00
5126;BME280;63008;53.112;8.896;2023-10-13T03:34:07;100773.59;;;16.47;100.00
5126;BME280;63008;53.112;8.896;2023-10-13T03:36:13;100776.84;;;16.52;100.00
5126;BME280;63008;53.112;8.896;2023-10-13T03:38:34;100772.09;;;16.52;100.00
5126;BME280;63008;53.112;8.896;2023-10-13T03:40:37;100779.69;;;16.56;100.00
5126;BME280;63008;53.112;8.896;2023-10-13T03:42:39;100772.97;;;16.57;100.00
5126;BME280;63008;53.112;8.896;2023-10-13T03:44:41;100774.56;;;16.58;100.00
5126;BME280;63008;53.112;8.896;2023-10-13T03:46:46;100765.03;;;16.55;100.00
5126;BME280;63008;53.112;8.896;2023-10-13T03:48:50;100757.06;;;16.53;100.00
5126;BME280;63008;53.112;8.896;2023-10-13T03:51:02;100765.38;;;16.53;100.00
5126;BME280;63008;53.112;8.896;2023-10-13T03:53:07;100766.19;;;16.54;100.00
5126;BME280;63008;53.112;8.896;2023-10-13T03:55:13;100765.03;;;16.55;100.00
5126;BME280;63008;53.112;8.896;2023-10-13T03:57:18;100757.94;;;16.58;100.00
5126;BME280;63008;53.112;8.896;2023-10-13T03:59:19;100759.47;;;16.55;100.00
5126;BME280;63008;53.112;8.896;2023-10-13T04:01:21;100760.28;;;16.56;100.00
5126;BME280;63008;53.112;8.896;2023-10-13T04:03:31;100763.06;;;16.56;100.00
5126;BME280;63008;53.112;8.896;2023-10-13T04:05:38;100756.72;;;16.55;100.00
5126;BME280;63008;53.112;8.896;2023-10-13T04:07:41;100751.16;;;16.55;100.00
5126;BME280;63008;53.112;8.896;2023-10-13T04:10:02;100744.09;;;16.58;100.00
5126;BME280;63008;53.112;8.896;2023-10-13T04:12:12;100751.22;;;16.58;100.00
5126;BME280;63008;53.112;8.896;2023-10-13T04:14:13;100748.81;;;16.57;100.00
5126;BME280;63008;53.112;8.896;2023-10-13T04:16:46;100745.25;;;16.57;100.00
5126;BME280;63008;53.112;8.896;2023-10-13T04:18:54;100731.41;;;16.57;100.00
5126;BME280;63008;53.112;8.896;2023-10-13T04:20:56;100734.22;;;16.60;100.00
5126;BME280;63008;53.112;8.896;2023-10-13T04:23:12;100727.81;;;16.56;100.00
5126;BME280;63008;53.112;8.896;2023-10-13T04:27:36;100729.06;;;16.58;100.00
5126;BME280;63008;53.112;8.896;2023-10-13T04:29:41;100713.59;;;16.58;100.00
5126;BME280;63008;53.112;8.896;2023-10-13T04:31:57;100714.78;;;16.57;100.00
5126;BME280;63008;53.112;8.896;2023-10-13T04:34:01;100708.06;;;16.58;100.00
5126;BME280;63008;53.112;8.896;2023-10-13T04:36:16;100712.72;;;16.53;100.00
5126;BME280;63008;53.112;8.896;2023-10-13T04:38:17;100704.13;;;16.58;100.00
5126;BME280;63008;53.112;8.896;2023-10-13T04:40:21;100696.59;;;16.59;100.00
5126;BME280;63008;53.112;8.896;2023-10-13T04:42:25;100695.81;;;16.58;100.00
5126;BME280;63008;53.112;8.896;2023-10-13T04:44:45;100686.63;;;16.54;100.00
5126;BME280;63008;53.112;8.896;2023-10-13T04:46:49;100668.41;;;16.53;100.00
5126;BME280;63008;53.112;8.896;2023-10-13T04:48:50;100671.97;;;16.54;100.00
5126;BME280;63008;53.112;8.896;2023-10-13T04:50:51;100669.97;;;16.51;100.00
5126;BME280;63008;53.112;8.896;2023-10-13T04:52:58;100664.84;;;16.53;100.00
5126;BME280;63008;53.112;8.896;2023-10-13T04:55:03;100661.25;;;16.52;100.00
5126;BME280;63008;53.112;8.896;2023-10-13T04:57:21;100656.53;;;16.53;100.00
5126;BME280;63008;53.112;8.896;2023-10-13T04:59:40;100656.13;;;16.54;100.00
5126;BME280;63008;53.112;8.896;2023-10-13T05:02:00;100654.94;;;16.52;100.00
5126;BME280;63008;53.112;8.896;2023-10-13T05:04:19;100658.13;;;16.54;100.00
5126;BME280;63008;53.112;8.896;2023-10-13T05:06:39;100636.75;;;16.54;100.00
5126;BME280;63008;53.112;8.896;2023-10-13T05:08:46;100639.09;;;16.52;100.00
5126;BME280;63008;53.112;8.896;2023-10-13T05:11:05;100631.97;;;16.52;100.00
5126;BME280;63008;53.112;8.896;2023-10-13T05:13:25;100627.59;;;16.51;100.00
5126;BME280;63008;53.112;8.896;2023-10-13T05:15:47;100627.59;;;16.51;100.00
5126;BME280;63008;53.112;8.896;2023-10-13T05:18:07;100624.81;;;16.51;100.00
5126;BME280;63008;53.112;8.896;2023-10-13T05:20:26;100622.09;;;16.54;100.00
5126;BME280;63008;53.112;8.896;2023-10-13T05:22:46;100615.75;;;16.53;100.00
5126;BME280;63008;53.112;8.896;2023-10-13T05:25:05;100617.34;;;16.54;100.00
5126;BME280;63008;53.112;8.896;2023-10-13T05:27:24;100611.03;;;16.54;100.00
5126;BME280;63008;53.112;8.896;2023-10-13T05:29:45;100610.59;;;16.52;100.00
5126;BME280;63008;53.112;8.896;2023-10-13T05:32:05;100614.56;;;16.54;100.00
5126;BME280;63008;53.112;8.896;2023-10-13T05:34:24;100591.69;;;16.58;100.00
5126;BME280;63008;53.112;8.896;2023-10-13T05:36:44;100597.16;;;16.54;100.00
5126;BME280;63008;53.112;8.896;2023-10-13T05:39:03;100594.75;;;16.52;100.00
5126;BME280;63008;53.112;8.896;2023-10-13T05:41:30;100592.41;;;16.54;100.00
5126;BME280;63008;53.112;8.896;2023-10-13T05:43:50;100588.03;;;16.53;100.00
5126;BME280;63008;53.112;8.896;2023-10-13T05:46:09;100583.38;;;16.58;100.00
5126;BME280;63008;53.112;8.896;2023-10-13T05:48:28;100581.31;;;16.54;100.00
5126;BME280;63008;53.112;8.896;2023-10-13T05:50:43;100586.13;;;16.58;100.00
5126;BME280;63008;53.112;8.896;2023-10-13T05:53:03;100582.94;;;16.56;100.00
5126;BME280;63008;53.112;8.896;2023-10-13T05:55:10;100577.44;;;16.59;100.00
5126;BME280;63008;53.112;8.896;2023-10-13T05:57:29;100569.13;;;16.59;100.00
5126;BME280;63008;53.112;8.896;2023-10-13T05:59:49;100574.28;;;16.60;100.00
5126;BME280;63008;53.112;8.896;2023-10-13T06:02:09;100574.72;;;16.62;100.00
5126;BME280;63008;53.112;8.896;2023-10-13T06:04:28;100571.94;;;16.62;100.00
5126;BME280;63008;53.112;8.896;2023-10-13T06:06:47;100564.38;;;16.59;100.00
5126;BME280;63008;53.112;8.896;2023-10-13T06:09:07;100556.84;;;16.60;100.00
5126;BME280;63008;53.112;8.896;2023-10-13T06:11:26;100548.19;;;16.61;100.00
5126;BME280;63008;53.112;8.896;2023-10-13T06:13:48;100547.38;;;16.61;100.00
5126;BME280;63008;53.112;8.896;2023-10-13T06:16:09;100543.41;;;16.62;100.00
5126;BME280;63008;53.112;8.896;2023-10-13T06:18:28;100544.22;;;16.62;100.00
5126;BME280;63008;53.112;8.896;2023-10-13T06:20:55;100543.41;;;16.62;100.00
5126;BME280;63008;53.112;8.896;2023-10-13T06:23:14;100545.81;;;16.63;100.00
5126;BME280;63008;53.112;8.896;2023-10-13T06:25:34;100541.88;;;16.64;100.00
5126;BME280;63008;53.112;8.896;2023-10-13T06:27:53;100541.50;;;16.66;100.00
5126;BME280;63008;53.112;8.896;2023-10-13T06:30:13;100541.09;;;16.67;100.00
5126;BME280;63008;53.112;8.896;2023-10-13T06:32:14;100529.59;;;16.65;100.00
5126;BME280;63008;53.112;8.896;2023-10-13T06:34:16;100529.66;;;16.69;100.00
5126;BME280;63008;53.112;8.896;2023-10-13T06:36:21;100518.94;;;16.67;100.00
5126;BME280;63008;53.112;8.896;2023-10-13T06:38:22;100519.69;;;16.64;100.00
5126;BME280;63008;53.112;8.896;2023-10-13T06:40:23;100513.03;;;16.69;100.00
5126;BME280;63008;53.112;8.896;2023-10-13T06:42:26;100509.84;;;16.67;100.00
5126;BME280;63008;53.112;8.896;2023-10-13T06:44:30;100503.13;;;16.68;100.00
5126;BME280;63008;53.112;8.896;2023-10-13T06:46:32;100501.13;;;16.68;100.00
5126;BME280;63008;53.112;8.896;2023-10-13T06:48:35;100511.03;;;16.69;100.00
5126;BME280;63008;53.112;8.896;2023-10-13T06:50:36;100488.44;;;16.67;100.00
5126;BME280;63008;53.112;8.896;2023-10-13T06:52:43;100486.84;;;16.66;100.00
5126;BME280;63008;53.112;8.896;2023-10-13T06:54:44;100481.31;;;16.66;100.00
5126;BME280;63008;53.112;8.896;2023-10-13T06:56:45;100473.00;;;16.66;100.00
5126;BME280;63008;53.112;8.896;2023-10-13T06:58:46;100463.91;;;16.66;100.00
5126;BME280;63008;53.112;8.896;2023-10-13T07:00:47;100464.28;;;16.64;100.00
5126;BME280;63008;53.112;8.896;2023-10-13T07:02:54;100457.56;;;16.65;100.00
5126;BME280;63008;53.112;8.896;2023-10-13T07:05:06;100450.81;;;16.66;100.00
5126;BME280;63008;53.112;8.896;2023-10-13T07:07:12;100446.09;;;16.67;100.00
5126;BME280;63008;53.112;8.896;2023-10-13T07:09:16;100445.28;;;16.66;100.00
5126;BME280;63008;53.112;8.896;2023-10-13T07:11:37;100425.88;;;16.66;100.00
5126;BME280;63008;53.112;8.896;2023-10-13T07:13:43;100423.94;;;16.67;100.00
5126;BME280;63008;53.112;8.896;2023-10-13T07:15:52;100420.75;;;16.68;100.00
5126;BME280;63008;53.112;8.896;2023-10-13T07:17:53;100430.66;;;16.69;100.00
5126;BME280;63008;53.112;8.896;2023-10-13T07:20:00;100434.25;;;16.70;100.00
5126;BME280;63008;53.112;8.896;2023-10-13T07:22:15;100424.34;;;16.69;100.00
5126;BME280;63008;53.112;8.896;2023-10-13T07:24:22;100419.16;;;16.67;100.00
5126;BME280;63008;53.112;8.896;2023-10-13T07:26:23;100409.72;;;16.72;100.00
5126;BME280;63008;53.112;8.896;2023-10-13T07:28:24;100421.16;;;16.70;100.00
5126;BME280;63008;53.112;8.896;2023-10-13T07:30:26;100419.97;;;16.71;100.00
5126;BME280;63008;53.112;8.896;2023-10-13T07:32:27;100410.88;;;16.71;100.00
5126;BME280;63008;53.112;8.896;2023-10-13T07:34:31;100417.22;;;16.71;100.00
5126;BME280;63008;53.112;8.896;2023-10-13T07:36:33;100410.50;;;16.72;100.00
5126;BME280;63008;53.112;8.896;2023-10-13T07:38:39;100409.72;;;16.72;100.00
5126;BME280;63008;53.112;8.896;2023-10-13T07:40:43;100411.31;;;16.73;100.00
5126;BME280;63008;53.112;8.896;2023-10-13T07:42:52;100414.44;;;16.68;100.00
5126;BME280;63008;53.112;8.896;2023-10-13T07:44:53;100424.34;;;16.69;100.00
5126;BME280;63008;53.112;8.896;2023-10-13T07:46:56;100412.41;;;16.61;100.00
5126;BME280;63008;53.112;8.896;2023-10-13T07:49:01;100411.56;;;16.61;100.00
5126;BME280;63008;53.112;8.896;2023-10-13T07:51:12;100411.22;;;16.62;100.00
5126;BME280;63008;53.112;8.896;2023-10-13T07:53:19;100398.13;;;16.59;100.00
5126;BME280;63008;53.112;8.896;2023-10-13T07:55:23;100409.59;;;16.58;100.00
5126;BME280;63008;53.112;8.896;2023-10-13T07:57:24;100400.84;;;16.56;100.00
5126;BME280;63008;53.112;8.896;2023-10-13T07:59:30;100398.09;;;16.56;100.00
5126;BME280;63008;53.112;8.896;2023-10-13T08:01:30;100399.69;;;16.57;100.00
5126;BME280;63008;53.112;8.896;2023-10-13T08:03:34;100395.41;;;16.66;100.00
5126;BME280;63008;53.112;8.896;2023-10-13T08:05:53;100396.63;;;16.69;100.00
5126;BME280;63008;53.112;8.896;2023-10-13T08:08:12;100401.81;;;16.74;100.00
5126;BME280;63008;53.112;8.896;2023-10-13T08:10:15;100396.66;;;16.76;100.00
5126;BME280;63008;53.112;8.896;2023-10-13T08:12:17;100400.25;;;16.80;100.00
5126;BME280;63008;53.112;8.896;2023-10-13T08:14:22;100403.06;;;16.83;100.00
5126;BME280;63008;53.112;8.896;2023-10-13T08:16:23;100414.19;;;16.87;100.00
5126;BME280;63008;53.112;8.896;2023-10-13T08:18:29;100417.81;;;16.94;100.00
5126;BME280;63008;53.112;8.896;2023-10-13T08:20:39;100415.09;;;17.01;100.00
5126;BME280;63008;53.112;8.896;2023-10-13T08:22:40;100417.53;;;17.10;100.00
5126;BME280;63008;53.112;8.896;2023-10-13T08:24:48;100408.50;;;17.23;100.00
5126;BME280;63008;53.112;8.896;2023-10-13T08:26:49;100421.31;;;17.35;100.00
5126;BME280;63008;53.112;8.896;2023-10-13T08:29:08;100414.66;;;17.46;100.00
5126;BME280;63008;53.112;8.896;2023-10-13T08:31:21;100418.22;;;17.50;100.00
5126;BME280;63008;53.112;8.896;2023-10-13T08:33:27;100417.06;;;17.55;100.00
5126;BME280;63008;53.112;8.896;2023-10-13T08:35:28;100417.03;;;17.51;100.00
5126;BME280;63008;53.112;8.896;2023-10-13T08:37:36;100413.09;;;17.52;100.00
5126;BME280;63008;53.112;8.896;2023-10-13T08:40:00;100409.50;;;17.52;100.00
5126;BME280;63008;53.112;8.896;2023-10-13T08:42:05;100396.06;;;17.54;100.00
5126;BME280;63008;53.112;8.896;2023-10-13T08:44:16;100394.47;;;17.56;100.00
5126;BME280;63008;53.112;8.896;2023-10-13T08:46:33;100393.69;;;17.59;100.00
5126;BME280;63008;53.112;8.896;2023-10-13T08:48:59;100379.41;;;17.57;100.00
5126;BME280;63008;53.112;8.896;2023-10-13T08:51:14;100376.63;;;17.57;100.00
5126;BME280;63008;53.112;8.896;2023-10-13T08:53:32;100388.50;;;17.54;100.00
5126;BME280;63008;53.112;8.896;2023-10-13T08:55:46;100391.28;;;17.54;100.00
5126;BME280;63008;53.112;8.896;2023-10-13T08:58:03;100390.50;;;17.54;100.00
5126;BME280;63008;53.112;8.896;2023-10-13T09:00:14;100384.97;;;17.54;100.00
5126;BME280;63008;53.112;8.896;2023-10-13T09:02:29;100383.38;;;17.53;100.00
5126;BME280;63008;53.112;8.896;2023-10-13T09:04:49;100388.50;;;17.54;100.00
5126;BME280;63008;53.112;8.896;2023-10-13T09:07:10;100388.47;;;17.51;100.00
5126;BME280;63008;53.112;8.896;2023-10-13T09:09:22;100393.25;;;17.50;100.00
5126;BME280;63008;53.112;8.896;2023-10-13T09:11:35;100388.50;;;17.47;100.00
5126;BME280;63008;53.112;8.896;2023-10-13T09:13:49;100393.22;;;17.47;100.00
5126;BME280;63008;53.112;8.896;2023-10-13T09:15:52;100373.03;;;17.46;100.00
5126;BME280;63008;53.112;8.896;2023-10-13T09:18:03;100374.63;;;17.47;100.00
5126;BME280;63008;53.112;8.896;2023-10-13T09:20:16;100369.47;;;17.49;100.00
5126;BME280;63008;53.112;8.896;2023-10-13T09:22:28;100369.06;;;17.51;100.00
5126;BME280;63008;53.112;8.896;2023-10-13T09:24:36;100375.78;;;17.50;100.00
5126;BME280;63008;53.112;8.896;2023-10-13T09:26:37;100367.88;;;17.52;100.00
5126;BME280;63008;53.112;8.896;2023-10-13T09:28:38;100351.66;;;17.54;100.00
5126;BME280;63008;53.112;8.896;2023-10-13T09:30:47;100346.91;;;17.58;100.00
5126;BME280;63008;53.112;8.896;2023-10-13T09:33:02;100340.19;;;17.62;100.00
5126;BME280;63008;53.112;8.896;2023-10-13T09:35:04;100339.81;;;17.67;100.00
5126;BME280;63008;53.112;8.896;2023-10-13T09:37:06;100344.19;;;17.72;100.00
5126;BME280;63008;53.112;8.896;2023-10-13T09:39:10;100327.91;;;17.77;100.00
5126;BME280;63008;53.112;8.896;2023-10-13T09:41:13;100325.16;;;17.77;100.00
5126;BME280;63008;53.112;8.896;2023-10-13T09:43:21;100322.38;;;17.77;100.00
5126;BME280;63008;53.112;8.896;2023-10-13T09:45:28;100301.00;;;17.81;100.00
5126;BME280;63008;53.112;8.896;2023-10-13T09:47:29;100295.81;;;17.87;100.00
5126;BME280;63008;53.112;8.896;2023-10-13T09:49:39;100294.25;;;17.93;100.00
5126;BME280;63008;53.112;8.896;2023-10-13T09:51:46;100301.44;;;17.97;100.00
5126;BME280;63008;53.112;8.896;2023-10-13T09:54:08;100299.44;;;18.08;100.00
5126;BME280;63008;53.112;8.896;2023-10-13T09:56:15;100295.47;;;18.13;100.00
5126;BME280;63008;53.112;8.896;2023-10-13T09:58:26;100296.28;;;18.17;100.00
5126;BME280;63008;53.112;8.896;2023-10-13T10:00:40;100283.56;;;18.26;100.00
5126;BME280;63008;53.112;8.896;2023-10-13T10:02:42;100284.41;;;18.37;100.00
5126;BME280;63008;53.112;8.896;2023-10-13T10:04:52;100273.69;;;18.49;100.00
5126;BME280;63008;53.112;8.896;2023-10-13T10:06:54;100267.31;;;18.63;100.00
5126;BME280;63008;53.112;8.896;2023-10-13T10:09:09;100268.50;;;18.69;100.00
5126;BME280;63008;53.112;8.896;2023-10-13T10:11:32;100268.88;;;18.74;100.00
5126;BME280;63008;53.112;8.896;2023-10-13T10:13:52;100264.91;;;18.82;100.00
5126;BME280;63008;53.112;8.896;2023-10-13T10:16:02;100268.47;;;18.90;100.00
5126;BME280;63008;53.112;8.896;2023-10-13T10:18:22;100255.34;;;18.90;100.00
5126;BME280;63008;53.112;8.896;2023-10-13T10:20:35;100261.63;;;19.15;100.00
5126;BME280;63008;53.112;8.896;2023-10-13T10:22:56;100252.09;;;19.13;100.00
5126;BME280;63008;53.112;8.896;2023-10-13T10:25:01;100231.34;;;19.35;100.00
5126;BME280;63008;53.112;8.896;2023-10-13T10:27:07;100246.84;;;19.36;100.00
5126;BME280;63008;53.112;8.896;2023-10-13T10:29:11;100240.13;;;19.26;100.00
5126;BME280;63008;53.112;8.896;2023-10-13T10:31:15;100244.94;;;19.22;100.00
5126;BME280;63008;53.112;8.896;2023-10-13T10:33:17;100230.63;;;19.20;100.00
5126;BME280;63008;53.112;8.896;2023-10-13T10:35:23;100240.16;;;19.19;100.00
5126;BME280;63008;53.112;8.896;2023-10-13T10:37:32;100235.38;;;19.23;100.00
5126;BME280;63008;53.112;8.896;2023-10-13T10:39:36;100227.03;;;19.27;100.00
5126;BME280;63008;53.112;8.896;2023-10-13T10:41:46;100234.50;;;19.37;100.00
5126;BME280;63008;53.112;8.896;2023-10-13T10:43:52;100236.47;;;19.47;100.00
5126;BME280;63008;53.112;8.896;2023-10-13T10:45:54;100224.09;;;19.55;100.00
5126;BME280;63008;53.112;8.896;2023-10-13T10:48:00;100226.75;;;19.72;100.00
5126;BME280;63008;53.112;8.896;2023-10-13T10:50:25;100221.97;;;19.76;100.00
5126;BME280;63008;53.112;8.896;2023-10-13T10:52:35;100216.38;;;19.80;100.00
5126;BME280;63008;53.112;8.896;2023-10-13T10:54:38;100210.41;;;19.78;100.00
5126;BME280;63008;53.112;8.896;2023-10-13T10:56:46;100193.34;;;19.69;100.00
5126;BME280;63008;53.112;8.896;2023-10-13T10:58:58;100198.53;;;19.70;100.00
5126;BME280;63008;53.112;8.896;2023-10-13T11:01:06;100171.53;;;19.64;100.00
5126;BME280;63008;53.112;8.896;2023-10-13T11:03:19;100159.25;;;19.58;100.00
5126;BME280;63008;53.112;8.896;2023-10-13T11:05:20;100159.25;;;19.58;100.00
5126;BME280;63008;53.112;8.896;2023-10-13T11:07:23;100146.91;;;19.59;100.00
5126;BME280;63008;53.112;8.896;2023-10-13T11:09:25;100136.16;;;19.61;100.00
5126;BME280;63008;53.112;8.896;2023-10-13T11:11:30;100143.28;;;19.65;100.00
5126;BME280;63008;53.112;8.896;2023-10-13T11:13:46;100146.41;;;19.71;100.00